sensor_id;sensor_type;location;lat;lon;timestamp;P1;durP1;ratioP1;P2;durP2;ratioP2
15936;SDS011;9163;48.818;8.976;2022-08-11T00:01:11;3.87;;;1.80;;
15936;SDS011;9163;48.818;8.976;2022-08-11T00:03:43;2.47;;;1.70;;
15936;SDS011;9163;48.818;8.976;2022-08-11T00:06:15;4.67;;;1.70;;
15936;SDS011;9163;48.818;8.976;2022-08-11T00:08:51;5.43;;;1.90;;
15936;SDS011;9163;48.818;8.976;2022-08-11T00:11:20;2.50;;;1.90;;
15936;SDS011;9163;48.818;8.976;2022-08-11T00:13:48;2.40;;;1.80;;
15936;SDS011;9163;48.818;8.976;2022-08-11T00:16:17;4.90;;;2.03;;
15936;SDS011;9163;48.818;8.976;2022-08-11T00:18:48;2.37;;;1.80;;
15936;SDS011;9163;48.818;8.976;2022-08-11T00:21:18;5.73;;;1.87;;
15936;SDS011;9163;48.818;8.976;2022-08-11T00:23:54;2.73;;;2.07;;
15936;SDS011;9163;48.818;8.976;2022-08-11T00:26:24;2.20;;;1.77;;
15936;SDS011;9163;48.818;8.976;2022-08-11T00:28:52;3.03;;;1.80;;
15936;SDS011;9163;48.818;8.976;2022-08-11T00:31:21;2.87;;;1.80;;
15936;SDS011;9163;48.818;8.976;2022-08-11T00:33:50;5.23;;;2.30;;
15936;SDS011;9163;48.818;8.976;2022-08-11T00:36:21;4.90;;;2.20;;
15936;SDS011;9163;48.818;8.976;2022-08-11T00:38:53;4.33;;;2.27;;
15936;SDS011;9163;48.818;8.976;2022-08-11T00:41:30;3.13;;;1.90;;
15936;SDS011;9163;48.818;8.976;2022-08-11T00:44:08;2.27;;;2.00;;
15936;SDS011;9163;48.818;8.976;2022-08-11T00:47:01;2.60;;;1.80;;
15936;SDS011;9163;48.818;8.976;2022-08-11T00:49:42;2.77;;;1.77;;
15936;SDS011;9163;48.818;8.976;2022-08-11T00:52:25;3.33;;;2.07;;
15936;SDS011;9163;48.818;8.976;2022-08-11T00:58:19;2.20;;;1.83;;
15936;SDS011;9163;48.818;8.976;2022-08-11T01:01:14;2.33;;;2.00;;
15936;SDS011;9163;48.818;8.976;2022-08-11T01:04:15;2.70;;;1.90;;
15936;SDS011;9163;48.818;8.976;2022-08-11T01:07:22;4.27;;;1.83;;
15936;SDS011;9163;48.818;8.976;2022-08-11T01:10:22;4.37;;;2.03;;
15936;SDS011;9163;48.818;8.976;2022-08-11T01:13:07;2.60;;;1.90;;
15936;SDS011;9163;48.818;8.976;2022-08-11T01:15:57;1.70;;;1.60;;
15936;SDS011;9163;48.818;8.976;2022-08-11T01:40:56;3.40;;;1.87;;
15936;SDS011;9163;48.818;8.976;2022-08-11T01:43:52;2.67;;;2.00;;
15936;SDS011;9163;48.818;8.976;2022-08-11T01:46:56;2.63;;;1.90;;
15936;SDS011;9163;48.818;8.976;2022-08-11T01:49:57;3.00;;;1.90;;
15936;SDS011;9163;48.818;8.976;2022-08-11T01:52:38;3.13;;;2.07;;
15936;SDS011;9163;48.818;8.976;2022-08-11T01:55:16;4.80;;;2.10;;
15936;SDS011;9163;48.818;8.976;2022-08-11T01:57:49;2.67;;;1.87;;
15936;SDS011;9163;48.818;8.976;2022-08-11T02:00:23;2.63;;;2.00;;
15936;SDS011;9163;48.818;8.976;2022-08-11T02:02:58;2.30;;;1.93;;
15936;SDS011;9163;48.818;8.976;2022-08-11T02:05:43;3.33;;;1.83;;
15936;SDS011;9163;48.818;8.976;2022-08-11T02:08:20;5.23;;;2.23;;
15936;SDS011;9163;48.818;8.976;2022-08-11T02:11:00;3.53;;;1.90;;
15936;SDS011;9163;48.818;8.976;2022-08-11T02:14:01;2.57;;;1.77;;
15936;SDS011;9163;48.818;8.976;2022-08-11T02:16:50;2.70;;;2.10;;
15936;SDS011;9163;48.818;8.976;2022-08-11T02:19:25;3.50;;;2.27;;
15936;SDS011;9163;48.818;8.976;2022-08-11T02:22:21;4.70;;;2.20;;
15936;SDS011;9163;48.818;8.976;2022-08-11T02:25:17;2.67;;;2.00;;
15936;SDS011;9163;48.818;8.976;2022-08-11T02:27:51;3.90;;;2.20;;
15936;SDS011;9163;48.818;8.976;2022-08-11T02:30:28;2.20;;;2.00;;
15936;SDS011;9163;48.818;8.976;2022-08-11T02:33:02;3.30;;;2.00;;
15936;SDS011;9163;48.818;8.976;2022-08-11T02:35:50;2.83;;;2.37;;
15936;SDS011;9163;48.818;8.976;2022-08-11T02:38:27;4.70;;;2.23;;
15936;SDS011;9163;48.818;8.976;2022-08-11T02:41:00;2.90;;;2.10;;
15936;SDS011;9163;48.818;8.976;2022-08-11T02:44:01;3.00;;;2.00;;
15936;SDS011;9163;48.818;8.976;2022-08-11T02:46:40;3.07;;;2.00;;
15936;SDS011;9163;48.818;8.976;2022-08-11T02:49:17;2.60;;;2.07;;
15936;SDS011;9163;48.818;8.976;2022-08-11T02:52:14;3.67;;;2.20;;
15936;SDS011;9163;48.818;8.976;2022-08-11T02:54:52;3.90;;;2.10;;
15936;SDS011;9163;48.818;8.976;2022-08-11T02:57:29;4.57;;;2.40;;
15936;SDS011;9163;48.818;8.976;2022-08-11T03:00:04;4.00;;;2.17;;
15936;SDS011;9163;48.818;8.976;2022-08-11T03:02:42;3.53;;;2.20;;
15936;SDS011;9163;48.818;8.976;2022-08-11T03:05:23;3.57;;;2.40;;
15936;SDS011;9163;48.818;8.976;2022-08-11T03:08:10;4.20;;;2.10;;
15936;SDS011;9163;48.818;8.976;2022-08-11T03:10:50;5.53;;;2.20;;
15936;SDS011;9163;48.818;8.976;2022-08-11T03:13:45;4.00;;;2.50;;
15936;SDS011;9163;48.818;8.976;2022-08-11T03:16:41;4.37;;;2.60;;
15936;SDS011;9163;48.818;8.976;2022-08-11T03:19:20;4.53;;;2.50;;
15936;SDS011;9163;48.818;8.976;2022-08-11T03:21:55;4.50;;;2.57;;
15936;SDS011;9163;48.818;8.976;2022-08-11T03:24:30;3.13;;;2.30;;
15936;SDS011;9163;48.818;8.976;2022-08-11T03:27:10;5.10;;;2.60;;
15936;SDS011;9163;48.818;8.976;2022-08-11T03:30:00;4.13;;;2.57;;
15936;SDS011;9163;48.818;8.976;2022-08-11T03:32:36;4.90;;;2.40;;
15936;SDS011;9163;48.818;8.976;2022-08-11T03:35:33;2.80;;;2.50;;
15936;SDS011;9163;48.818;8.976;2022-08-11T03:38:05;3.73;;;2.30;;
15936;SDS011;9163;48.818;8.976;2022-08-11T03:40:40;2.70;;;2.10;;
15936;SDS011;9163;48.818;8.976;2022-08-11T03:43:46;4.00;;;2.43;;
15936;SDS011;9163;48.818;8.976;2022-08-11T03:46:25;4.33;;;2.43;;
15936;SDS011;9163;48.818;8.976;2022-08-11T03:49:13;4.77;;;2.80;;
15936;SDS011;9163;48.818;8.976;2022-08-11T03:51:54;5.27;;;2.50;;
15936;SDS011;9163;48.818;8.976;2022-08-11T03:54:37;4.93;;;2.80;;
15936;SDS011;9163;48.818;8.976;2022-08-11T04:19:16;5.30;;;2.90;;
15936;SDS011;9163;48.818;8.976;2022-08-11T04:25:09;4.60;;;2.70;;
15936;SDS011;9163;48.818;8.976;2022-08-11T04:30:56;7.93;;;3.10;;
15936;SDS011;9163;48.818;8.976;2022-08-11T04:33:37;3.67;;;2.70;;
15936;SDS011;9163;48.818;8.976;2022-08-11T04:36:36;3.63;;;2.57;;
15936;SDS011;9163;48.818;8.976;2022-08-11T04:39:42;4.97;;;3.00;;
15936;SDS011;9163;48.818;8.976;2022-08-11T04:45:48;4.50;;;2.50;;
15936;SDS011;9163;48.818;8.976;2022-08-11T04:48:42;4.27;;;2.70;;
15936;SDS011;9163;48.818;8.976;2022-08-11T04:51:48;3.57;;;2.70;;
15936;SDS011;9163;48.818;8.976;2022-08-11T04:54:52;4.83;;;2.70;;
15936;SDS011;9163;48.818;8.976;2022-08-11T04:57:52;4.50;;;2.60;;
15936;SDS011;9163;48.818;8.976;2022-08-11T05:00:55;6.33;;;2.90;;
15936;SDS011;9163;48.818;8.976;2022-08-11T05:04:08;4.83;;;2.70;;
15936;SDS011;9163;48.818;8.976;2022-08-11T05:06:59;5.93;;;3.07;;
15936;SDS011;9163;48.818;8.976;2022-08-11T05:09:57;3.07;;;2.50;;
15936;SDS011;9163;48.818;8.976;2022-08-11T05:12:39;6.63;;;2.70;;
15936;SDS011;9163;48.818;8.976;2022-08-11T05:15:10;5.33;;;3.00;;
15936;SDS011;9163;48.818;8.976;2022-08-11T05:18:06;6.53;;;2.87;;
15936;SDS011;9163;48.818;8.976;2022-08-11T05:21:02;4.73;;;2.93;;
15936;SDS011;9163;48.818;8.976;2022-08-11T05:23:52;4.70;;;2.80;;
15936;SDS011;9163;48.818;8.976;2022-08-11T05:26:47;4.77;;;3.00;;
15936;SDS011;9163;48.818;8.976;2022-08-11T05:29:37;4.03;;;2.80;;
15936;SDS011;9163;48.818;8.976;2022-08-11T05:32:26;3.73;;;2.97;;
15936;SDS011;9163;48.818;8.976;2022-08-11T05:35:23;6.67;;;3.07;;
15936;SDS011;9163;48.818;8.976;2022-08-11T05:37:55;4.23;;;2.90;;
15936;SDS011;9163;48.818;8.976;2022-08-11T05:40:46;4.97;;;2.90;;
15936;SDS011;9163;48.818;8.976;2022-08-11T05:43:32;5.83;;;2.90;;
15936;SDS011;9163;48.818;8.976;2022-08-11T05:46:22;6.73;;;3.20;;
15936;SDS011;9163;48.818;8.976;2022-08-11T05:49:10;6.83;;;2.93;;
15936;SDS011;9163;48.818;8.976;2022-08-11T05:51:56;5.47;;;2.80;;
15936;SDS011;9163;48.818;8.976;2022-08-11T05:54:44;8.33;;;3.17;;
15936;SDS011;9163;48.818;8.976;2022-08-11T05:57:30;5.60;;;2.87;;
15936;SDS011;9163;48.818;8.976;2022-08-11T06:00:03;4.40;;;3.30;;
15936;SDS011;9163;48.818;8.976;2022-08-11T06:02:39;6.43;;;3.00;;
15936;SDS011;9163;48.818;8.976;2022-08-11T06:05:09;9.67;;;2.80;;
15936;SDS011;9163;48.818;8.976;2022-08-11T06:07:37;9.10;;;3.03;;
15936;SDS011;9163;48.818;8.976;2022-08-11T06:10:06;9.00;;;3.00;;
15936;SDS011;9163;48.818;8.976;2022-08-11T06:12:35;12.37;;;3.27;;
15936;SDS011;9163;48.818;8.976;2022-08-11T06:15:06;6.43;;;2.63;;
15936;SDS011;9163;48.818;8.976;2022-08-11T06:17:42;10.97;;;3.10;;
15936;SDS011;9163;48.818;8.976;2022-08-11T06:20:12;11.30;;;2.87;;
15936;SDS011;9163;48.818;8.976;2022-08-11T06:22:44;10.03;;;3.00;;
15936;SDS011;9163;48.818;8.976;2022-08-11T06:25:15;9.30;;;2.80;;
15936;SDS011;9163;48.818;8.976;2022-08-11T06:27:44;9.20;;;3.10;;
15936;SDS011;9163;48.818;8.976;2022-08-11T06:30:11;12.03;;;3.13;;
15936;SDS011;9163;48.818;8.976;2022-08-11T06:32:40;7.43;;;3.07;;
15936;SDS011;9163;48.818;8.976;2022-08-11T06:35:17;10.20;;;2.80;;
15936;SDS011;9163;48.818;8.976;2022-08-11T06:40:40;9.80;;;3.17;;
15936;SDS011;9163;48.818;8.976;2022-08-11T06:43:40;6.57;;;2.87;;
15936;SDS011;9163;48.818;8.976;2022-08-11T06:46:16;5.80;;;2.73;;
15936;SDS011;9163;48.818;8.976;2022-08-11T06:48:50;6.20;;;2.53;;
15936;SDS011;9163;48.818;8.976;2022-08-11T06:51:19;3.03;;;2.50;;
15936;SDS011;9163;48.818;8.976;2022-08-11T06:53:48;7.40;;;2.50;;
15936;SDS011;9163;48.818;8.976;2022-08-11T06:56:22;5.00;;;2.70;;
15936;SDS011;9163;48.818;8.976;2022-08-11T06:59:09;4.53;;;2.47;;
15936;SDS011;9163;48.818;8.976;2022-08-11T07:01:56;4.90;;;2.90;;
15936;SDS011;9163;48.818;8.976;2022-08-11T07:04:31;6.03;;;3.10;;
15936;SDS011;9163;48.818;8.976;2022-08-11T07:10:38;6.00;;;2.60;;
15936;SDS011;9163;48.818;8.976;2022-08-11T07:13:32;5.27;;;3.33;;
15936;SDS011;9163;48.818;8.976;2022-08-11T07:16:21;5.43;;;2.80;;
15936;SDS011;9163;48.818;8.976;2022-08-11T07:18:53;6.23;;;2.80;;
15936;SDS011;9163;48.818;8.976;2022-08-11T07:21:42;4.03;;;2.60;;
15936;SDS011;9163;48.818;8.976;2022-08-11T07:24:31;7.27;;;3.00;;
15936;SDS011;9163;48.818;8.976;2022-08-11T07:27:20;3.87;;;2.90;;
15936;SDS011;9163;48.818;8.976;2022-08-11T07:30:09;4.73;;;2.73;;
15936;SDS011;9163;48.818;8.976;2022-08-11T07:32:40;5.65;;;2.70;;
15936;SDS011;9163;48.818;8.976;2022-08-11T07:35:11;4.77;;;2.67;;
15936;SDS011;9163;48.818;8.976;2022-08-11T07:37:42;8.53;;;2.67;;
15936;SDS011;9163;48.818;8.976;2022-08-11T07:40:18;3.77;;;2.53;;
15936;SDS011;9163;48.818;8.976;2022-08-11T07:42:47;6.65;;;3.03;;
15936;SDS011;9163;48.818;8.976;2022-08-11T07:45:17;3.78;;;2.70;;
15936;SDS011;9163;48.818;8.976;2022-08-11T07:48:03;6.57;;;2.40;;
15936;SDS011;9163;48.818;8.976;2022-08-11T07:50:49;3.17;;;2.40;;
15936;SDS011;9163;48.818;8.976;2022-08-11T07:53:35;3.67;;;2.40;;
15936;SDS011;9163;48.818;8.976;2022-08-11T07:56:04;2.92;;;2.60;;
15936;SDS011;9163;48.818;8.976;2022-08-11T07:58:33;5.20;;;2.60;;
15936;SDS011;9163;48.818;8.976;2022-08-11T08:01:21;7.65;;;2.55;;
15936;SDS011;9163;48.818;8.976;2022-08-11T08:04:08;6.57;;;2.70;;
15936;SDS011;9163;48.818;8.976;2022-08-11T08:06:56;5.50;;;2.63;;
15936;SDS011;9163;48.818;8.976;2022-08-11T08:09:41;4.72;;;3.08;;
15936;SDS011;9163;48.818;8.976;2022-08-11T08:12:27;3.63;;;2.88;;
15936;SDS011;9163;48.818;8.976;2022-08-11T08:15:14;7.70;;;2.88;;
15936;SDS011;9163;48.818;8.976;2022-08-11T08:18:02;6.38;;;2.70;;
15936;SDS011;9163;48.818;8.976;2022-08-11T08:20:31;6.40;;;2.65;;
15936;SDS011;9163;48.818;8.976;2022-08-11T08:23:03;3.72;;;2.15;;
15936;SDS011;9163;48.818;8.976;2022-08-11T08:25:32;7.57;;;2.60;;
15936;SDS011;9163;48.818;8.976;2022-08-11T08:28:05;5.00;;;2.60;;
15936;SDS011;9163;48.818;8.976;2022-08-11T08:30:35;5.38;;;2.35;;
15936;SDS011;9163;48.818;8.976;2022-08-11T08:33:14;5.20;;;2.58;;
15936;SDS011;9163;48.818;8.976;2022-08-11T08:35:45;5.85;;;2.88;;
15936;SDS011;9163;48.818;8.976;2022-08-11T08:38:14;6.72;;;2.42;;
15936;SDS011;9163;48.818;8.976;2022-08-11T08:40:42;2.83;;;2.30;;
15936;SDS011;9163;48.818;8.976;2022-08-11T08:43:14;3.70;;;2.42;;
15936;SDS011;9163;48.818;8.976;2022-08-11T08:45:42;6.30;;;2.67;;
15936;SDS011;9163;48.818;8.976;2022-08-11T08:48:12;3.97;;;2.45;;
15936;SDS011;9163;48.818;8.976;2022-08-11T08:50:47;5.65;;;2.22;;
15936;SDS011;9163;48.818;8.976;2022-08-11T08:53:38;6.28;;;2.40;;
15936;SDS011;9163;48.818;8.976;2022-08-11T08:56:11;8.32;;;2.70;;
15936;SDS011;9163;48.818;8.976;2022-08-11T08:58:39;3.15;;;2.08;;
15936;SDS011;9163;48.818;8.976;2022-08-11T09:01:08;4.43;;;2.20;;
15936;SDS011;9163;48.818;8.976;2022-08-11T09:03:38;3.58;;;2.05;;
15936;SDS011;9163;48.818;8.976;2022-08-11T09:06:06;4.53;;;2.30;;
15936;SDS011;9163;48.818;8.976;2022-08-11T09:08:34;3.75;;;2.55;;
15936;SDS011;9163;48.818;8.976;2022-08-11T09:11:05;6.10;;;2.15;;
15936;SDS011;9163;48.818;8.976;2022-08-11T09:14:05;5.53;;;2.00;;
15936;SDS011;9163;48.818;8.976;2022-08-11T09:16:33;3.03;;;2.20;;
15936;SDS011;9163;48.818;8.976;2022-08-11T09:19:02;2.65;;;2.17;;
15936;SDS011;9163;48.818;8.976;2022-08-11T09:21:30;4.40;;;1.95;;
15936;SDS011;9163;48.818;8.976;2022-08-11T09:23:59;3.85;;;1.95;;
15936;SDS011;9163;48.818;8.976;2022-08-11T09:26:45;3.42;;;1.95;;
15936;SDS011;9163;48.818;8.976;2022-08-11T09:29:25;3.88;;;2.00;;
15936;SDS011;9163;48.818;8.976;2022-08-11T09:31:54;3.40;;;2.10;;
15936;SDS011;9163;48.818;8.976;2022-08-11T09:34:23;3.13;;;2.00;;
15936;SDS011;9163;48.818;8.976;2022-08-11T09:36:52;4.07;;;1.98;;
15936;SDS011;9163;48.818;8.976;2022-08-11T09:39:39;6.78;;;3.50;;
15936;SDS011;9163;48.818;8.976;2022-08-11T09:42:25;5.22;;;2.28;;
15936;SDS011;9163;48.818;8.976;2022-08-11T09:45:13;4.05;;;2.05;;
15936;SDS011;9163;48.818;8.976;2022-08-11T09:47:41;7.53;;;1.92;;
15936;SDS011;9163;48.818;8.976;2022-08-11T09:50:11;4.53;;;2.03;;
15936;SDS011;9163;48.818;8.976;2022-08-11T09:52:41;4.45;;;2.10;;
15936;SDS011;9163;48.818;8.976;2022-08-11T09:55:12;7.22;;;1.83;;
15936;SDS011;9163;48.818;8.976;2022-08-11T09:57:43;3.08;;;1.73;;
15936;SDS011;9163;48.818;8.976;2022-08-11T10:00:29;2.55;;;1.63;;
15936;SDS011;9163;48.818;8.976;2022-08-11T10:03:02;5.32;;;1.77;;
15936;SDS011;9163;48.818;8.976;2022-08-11T10:05:34;2.65;;;1.55;;
15936;SDS011;9163;48.818;8.976;2022-08-11T10:08:20;2.33;;;1.60;;
15936;SDS011;9163;48.818;8.976;2022-08-11T10:10:52;2.60;;;1.67;;
15936;SDS011;9163;48.818;8.976;2022-08-11T10:13:21;3.88;;;1.63;;
15936;SDS011;9163;48.818;8.976;2022-08-11T10:15:52;2.72;;;1.80;;
15936;SDS011;9163;48.818;8.976;2022-08-11T10:18:23;4.68;;;1.80;;
15936;SDS011;9163;48.818;8.976;2022-08-11T10:21:16;2.58;;;1.73;;
15936;SDS011;9163;48.818;8.976;2022-08-11T10:23:54;3.67;;;1.75;;
15936;SDS011;9163;48.818;8.976;2022-08-11T10:27:00;4.22;;;1.73;;
15936;SDS011;9163;48.818;8.976;2022-08-11T10:29:46;2.10;;;1.80;;
15936;SDS011;9163;48.818;8.976;2022-08-11T10:32:44;4.53;;;1.92;;
15936;SDS011;9163;48.818;8.976;2022-08-11T10:35:33;5.38;;;1.60;;
15936;SDS011;9163;48.818;8.976;2022-08-11T10:38:02;2.33;;;1.35;;
15936;SDS011;9163;48.818;8.976;2022-08-11T10:40:30;1.95;;;1.50;;
15936;SDS011;9163;48.818;8.976;2022-08-11T10:43:00;2.45;;;1.65;;
15936;SDS011;9163;48.818;8.976;2022-08-11T10:45:28;3.30;;;1.60;;
15936;SDS011;9163;48.818;8.976;2022-08-11T10:48:13;2.25;;;1.50;;
15936;SDS011;9163;48.818;8.976;2022-08-11T10:50:44;3.13;;;1.60;;
15936;SDS011;9163;48.818;8.976;2022-08-11T10:53:31;2.75;;;1.60;;
15936;SDS011;9163;48.818;8.976;2022-08-11T10:56:17;3.40;;;1.80;;
15936;SDS011;9163;48.818;8.976;2022-08-11T10:59:03;2.72;;;1.80;;
15936;SDS011;9163;48.818;8.976;2022-08-11T11:01:34;2.85;;;1.67;;
15936;SDS011;9163;48.818;8.976;2022-08-11T11:04:05;2.50;;;1.77;;
15936;SDS011;9163;48.818;8.976;2022-08-11T11:06:39;2.25;;;1.52;;
15936;SDS011;9163;48.818;8.976;2022-08-11T11:09:18;3.80;;;1.67;;
15936;SDS011;9163;48.818;8.976;2022-08-11T11:11:53;2.53;;;1.55;;
15936;SDS011;9163;48.818;8.976;2022-08-11T11:14:42;4.20;;;1.58;;
15936;SDS011;9163;48.818;8.976;2022-08-11T11:17:28;3.50;;;1.80;;
15936;SDS011;9163;48.818;8.976;2022-08-11T11:20:16;6.53;;;1.80;;
15936;SDS011;9163;48.818;8.976;2022-08-11T11:22:48;2.65;;;1.75;;
15936;SDS011;9163;48.818;8.976;2022-08-11T11:25:29;3.63;;;2.00;;
15936;SDS011;9163;48.818;8.976;2022-08-11T11:28:16;2.60;;;1.77;;
15936;SDS011;9163;48.818;8.976;2022-08-11T11:30:58;4.75;;;1.70;;
15936;SDS011;9163;48.818;8.976;2022-08-11T11:33:39;2.20;;;1.60;;
15936;SDS011;9163;48.818;8.976;2022-08-11T11:36:21;5.25;;;1.65;;
15936;SDS011;9163;48.818;8.976;2022-08-11T11:38:53;2.95;;;1.73;;
15936;SDS011;9163;48.818;8.976;2022-08-11T11:41:24;3.08;;;2.15;;
15936;SDS011;9163;48.818;8.976;2022-08-11T11:43:52;4.10;;;1.70;;
15936;SDS011;9163;48.818;8.976;2022-08-11T11:46:21;6.30;;;2.30;;
15936;SDS011;9163;48.818;8.976;2022-08-11T11:48:52;2.95;;;2.00;;
15936;SDS011;9163;48.818;8.976;2022-08-11T11:51:23;2.92;;;1.67;;
15936;SDS011;9163;48.818;8.976;2022-08-11T11:53:52;2.80;;;1.70;;
15936;SDS011;9163;48.818;8.976;2022-08-11T11:56:21;1.80;;;1.60;;
15936;SDS011;9163;48.818;8.976;2022-08-11T11:58:51;2.70;;;1.73;;
15936;SDS011;9163;48.818;8.976;2022-08-11T12:01:41;2.08;;;1.77;;
15936;SDS011;9163;48.818;8.976;2022-08-11T12:04:16;2.85;;;1.70;;
15936;SDS011;9163;48.818;8.976;2022-08-11T12:06:45;1.83;;;1.60;;
15936;SDS011;9163;48.818;8.976;2022-08-11T12:09:38;3.60;;;1.88;;
15936;SDS011;9163;48.818;8.976;2022-08-11T12:12:15;5.53;;;1.80;;
15936;SDS011;9163;48.818;8.976;2022-08-11T12:15:08;2.67;;;1.80;;
15936;SDS011;9163;48.818;8.976;2022-08-11T12:17:49;2.97;;;1.67;;
15936;SDS011;9163;48.818;8.976;2022-08-11T12:20:21;2.65;;;1.90;;
15936;SDS011;9163;48.818;8.976;2022-08-11T12:22:57;2.97;;;1.90;;
15936;SDS011;9163;48.818;8.976;2022-08-11T12:25:48;4.75;;;1.73;;
15936;SDS011;9163;48.818;8.976;2022-08-11T12:28:41;2.05;;;1.80;;
15936;SDS011;9163;48.818;8.976;2022-08-11T12:31:12;2.80;;;1.80;;
15936;SDS011;9163;48.818;8.976;2022-08-11T12:33:40;4.05;;;1.88;;
15936;SDS011;9163;48.818;8.976;2022-08-11T12:36:11;1.77;;;1.50;;
15936;SDS011;9163;48.818;8.976;2022-08-11T12:38:47;5.05;;;1.83;;
15936;SDS011;9163;48.818;8.976;2022-08-11T12:41:26;2.85;;;1.60;;
15936;SDS011;9163;48.818;8.976;2022-08-11T12:44:13;3.75;;;1.70;;
15936;SDS011;9163;48.818;8.976;2022-08-11T12:47:01;5.78;;;1.77;;
15936;SDS011;9163;48.818;8.976;2022-08-11T12:49:30;4.25;;;1.52;;
15936;SDS011;9163;48.818;8.976;2022-08-11T12:52:21;3.35;;;1.77;;
15936;SDS011;9163;48.818;8.976;2022-08-11T12:54:57;3.65;;;1.75;;
15936;SDS011;9163;48.818;8.976;2022-08-11T12:57:35;2.95;;;1.75;;
15936;SDS011;9163;48.818;8.976;2022-08-11T13:00:28;2.85;;;1.65;;
15936;SDS011;9163;48.818;8.976;2022-08-11T13:03:14;2.38;;;1.77;;
15936;SDS011;9163;48.818;8.976;2022-08-11T13:06:03;1.88;;;1.63;;
15936;SDS011;9163;48.818;8.976;2022-08-11T13:08:32;2.47;;;1.83;;
15936;SDS011;9163;48.818;8.976;2022-08-11T13:11:07;3.60;;;1.40;;
15936;SDS011;9163;48.818;8.976;2022-08-11T13:13:52;3.58;;;1.80;;
15936;SDS011;9163;48.818;8.976;2022-08-11T13:16:23;3.90;;;1.50;;
15936;SDS011;9163;48.818;8.976;2022-08-11T13:18:53;2.78;;;1.70;;
15936;SDS011;9163;48.818;8.976;2022-08-11T13:21:23;3.20;;;1.90;;
15936;SDS011;9163;48.818;8.976;2022-08-11T13:23:52;4.72;;;1.70;;
15936;SDS011;9163;48.818;8.976;2022-08-11T13:26:21;2.85;;;1.60;;
15936;SDS011;9163;48.818;8.976;2022-08-11T13:28:48;2.47;;;1.65;;
15936;SDS011;9163;48.818;8.976;2022-08-11T13:31:17;3.30;;;1.60;;
15936;SDS011;9163;48.818;8.976;2022-08-11T13:33:47;3.17;;;1.67;;
15936;SDS011;9163;48.818;8.976;2022-08-11T13:36:17;3.95;;;1.80;;
15936;SDS011;9163;48.818;8.976;2022-08-11T13:38:46;1.88;;;1.52;;
15936;SDS011;9163;48.818;8.976;2022-08-11T13:41:14;2.22;;;1.48;;
15936;SDS011;9163;48.818;8.976;2022-08-11T13:44:01;3.33;;;1.30;;
15936;SDS011;9163;48.818;8.976;2022-08-11T13:46:36;3.65;;;1.70;;
15936;SDS011;9163;48.818;8.976;2022-08-11T13:49:11;1.80;;;1.70;;
15936;SDS011;9163;48.818;8.976;2022-08-11T13:51:46;2.08;;;1.58;;
15936;SDS011;9163;48.818;8.976;2022-08-11T13:54:15;4.32;;;1.75;;
15936;SDS011;9163;48.818;8.976;2022-08-11T13:56:47;1.98;;;1.67;;
15936;SDS011;9163;48.818;8.976;2022-08-11T13:59:20;2.58;;;1.63;;
15936;SDS011;9163;48.818;8.976;2022-08-11T14:01:50;2.50;;;1.38;;
15936;SDS011;9163;48.818;8.976;2022-08-11T14:04:35;3.10;;;1.60;;
15936;SDS011;9163;48.818;8.976;2022-08-11T14:07:09;1.80;;;1.65;;
15936;SDS011;9163;48.818;8.976;2022-08-11T14:09:43;2.80;;;1.42;;
15936;SDS011;9163;48.818;8.976;2022-08-11T14:12:13;1.83;;;1.40;;
15936;SDS011;9163;48.818;8.976;2022-08-11T14:15:04;2.22;;;1.60;;
15936;SDS011;9163;48.818;8.976;2022-08-11T14:17:37;6.15;;;1.52;;
15936;SDS011;9163;48.818;8.976;2022-08-11T14:20:08;3.20;;;1.50;;
15936;SDS011;9163;48.818;8.976;2022-08-11T14:22:40;3.63;;;1.60;;
15936;SDS011;9163;48.818;8.976;2022-08-11T14:25:12;1.58;;;1.42;;
15936;SDS011;9163;48.818;8.976;2022-08-11T14:27:42;1.85;;;1.38;;
15936;SDS011;9163;48.818;8.976;2022-08-11T14:30:16;3.95;;;1.60;;
15936;SDS011;9163;48.818;8.976;2022-08-11T14:32:59;3.90;;;1.63;;
15936;SDS011;9163;48.818;8.976;2022-08-11T14:35:28;2.80;;;1.40;;
15936;SDS011;9163;48.818;8.976;2022-08-11T14:37:55;2.03;;;1.45;;
15936;SDS011;9163;48.818;8.976;2022-08-11T14:40:27;3.72;;;1.60;;
15936;SDS011;9163;48.818;8.976;2022-08-11T14:43:16;1.73;;;1.58;;
15936;SDS011;9163;48.818;8.976;2022-08-11T14:46:01;1.50;;;1.30;;
15936;SDS011;9163;48.818;8.976;2022-08-11T14:48:47;2.03;;;1.50;;
15936;SDS011;9163;48.818;8.976;2022-08-11T14:51:16;2.13;;;1.67;;
15936;SDS011;9163;48.818;8.976;2022-08-11T14:53:45;1.73;;;1.40;;
15936;SDS011;9163;48.818;8.976;2022-08-11T14:56:14;4.47;;;1.55;;
15936;SDS011;9163;48.818;8.976;2022-08-11T14:58:59;3.97;;;1.50;;
15936;SDS011;9163;48.818;8.976;2022-08-11T15:01:26;2.55;;;1.40;;
15936;SDS011;9163;48.818;8.976;2022-08-11T15:04:11;2.03;;;1.52;;
15936;SDS011;9163;48.818;8.976;2022-08-11T15:06:42;1.77;;;1.38;;
15936;SDS011;9163;48.818;8.976;2022-08-11T15:09:10;3.15;;;1.50;;
15936;SDS011;9163;48.818;8.976;2022-08-11T15:11:37;2.83;;;1.48;;
15936;SDS011;9163;48.818;8.976;2022-08-11T15:14:24;3.95;;;1.50;;
15936;SDS011;9163;48.818;8.976;2022-08-11T15:17:09;3.78;;;1.55;;
15936;SDS011;9163;48.818;8.976;2022-08-11T15:19:39;3.60;;;1.50;;
15936;SDS011;9163;48.818;8.976;2022-08-11T15:22:30;2.70;;;1.30;;
15936;SDS011;9163;48.818;8.976;2022-08-11T15:25:15;3.45;;;1.35;;
15936;SDS011;9163;48.818;8.976;2022-08-11T15:27:44;2.45;;;1.50;;
15936;SDS011;9163;48.818;8.976;2022-08-11T15:30:31;2.33;;;1.50;;
15936;SDS011;9163;48.818;8.976;2022-08-11T15:33:18;2.38;;;1.27;;
15936;SDS011;9163;48.818;8.976;2022-08-11T15:36:05;1.90;;;1.65;;
15936;SDS011;9163;48.818;8.976;2022-08-11T15:39:05;3.55;;;1.50;;
15936;SDS011;9163;48.818;8.976;2022-08-11T15:41:40;2.83;;;1.50;;
15936;SDS011;9163;48.818;8.976;2022-08-11T15:44:32;2.42;;;1.40;;
15936;SDS011;9163;48.818;8.976;2022-08-11T15:47:20;4.38;;;1.75;;
15936;SDS011;9163;48.818;8.976;2022-08-11T15:49:52;2.72;;;1.50;;
15936;SDS011;9163;48.818;8.976;2022-08-11T15:52:26;2.33;;;1.40;;
15936;SDS011;9163;48.818;8.976;2022-08-11T15:54:59;3.00;;;1.40;;
15936;SDS011;9163;48.818;8.976;2022-08-11T15:57:31;2.22;;;1.67;;
15936;SDS011;9163;48.818;8.976;2022-08-11T16:00:18;2.75;;;1.65;;
15936;SDS011;9163;48.818;8.976;2022-08-11T16:03:03;2.08;;;1.50;;
15936;SDS011;9163;48.818;8.976;2022-08-11T16:05:51;2.58;;;1.38;;
15936;SDS011;9163;48.818;8.976;2022-08-11T16:08:19;3.63;;;1.70;;
15936;SDS011;9163;48.818;8.976;2022-08-11T16:10:50;2.92;;;1.60;;
15936;SDS011;9163;48.818;8.976;2022-08-11T16:13:20;2.15;;;1.80;;
15936;SDS011;9163;48.818;8.976;2022-08-11T16:16:07;2.20;;;1.40;;
15936;SDS011;9163;48.818;8.976;2022-08-11T16:18:41;3.30;;;1.58;;
15936;SDS011;9163;48.818;8.976;2022-08-11T16:21:13;2.28;;;1.48;;
15936;SDS011;9163;48.818;8.976;2022-08-11T16:23:44;2.70;;;1.40;;
15936;SDS011;9163;48.818;8.976;2022-08-11T16:26:17;2.53;;;1.40;;
15936;SDS011;9163;48.818;8.976;2022-08-11T16:28:47;2.35;;;1.33;;
15936;SDS011;9163;48.818;8.976;2022-08-11T16:31:16;2.50;;;1.52;;
15936;SDS011;9163;48.818;8.976;2022-08-11T16:33:44;4.68;;;1.65;;
15936;SDS011;9163;48.818;8.976;2022-08-11T16:36:13;3.22;;;1.40;;
15936;SDS011;9163;48.818;8.976;2022-08-11T16:38:59;1.60;;;1.50;;
15936;SDS011;9163;48.818;8.976;2022-08-11T16:41:30;3.90;;;1.33;;
15936;SDS011;9163;48.818;8.976;2022-08-11T16:44:17;2.65;;;1.63;;
15936;SDS011;9163;48.818;8.976;2022-08-11T16:47:03;2.95;;;1.50;;
15936;SDS011;9163;48.818;8.976;2022-08-11T16:49:34;2.70;;;1.42;;
15936;SDS011;9163;48.818;8.976;2022-08-11T16:52:04;2.83;;;1.63;;
15936;SDS011;9163;48.818;8.976;2022-08-11T16:54:35;4.47;;;1.80;;
15936;SDS011;9163;48.818;8.976;2022-08-11T16:57:05;2.70;;;1.60;;
15936;SDS011;9163;48.818;8.976;2022-08-11T16:59:55;1.85;;;1.50;;
15936;SDS011;9163;48.818;8.976;2022-08-11T17:02:27;1.55;;;1.45;;
15936;SDS011;9163;48.818;8.976;2022-08-11T17:05:18;3.75;;;1.70;;
15936;SDS011;9163;48.818;8.976;2022-08-11T17:08:07;1.83;;;1.50;;
15936;SDS011;9163;48.818;8.976;2022-08-11T17:10:54;4.38;;;1.67;;
15936;SDS011;9163;48.818;8.976;2022-08-11T17:13:49;2.63;;;1.58;;
15936;SDS011;9163;48.818;8.976;2022-08-11T17:16:20;3.15;;;1.48;;